Hauptseite
METAR-TAF:

METAR-TAF

Flughäfen :

Flughafen Grenchen

Grenchen, Schweiz

Breite: 47-10-53N, Länge: 007-24-59E, Höhe: 430 m

Beobachtung

Neuester Wetterbericht von vor 33 Minuten, um 04:50 UTC
Wind 3 kt aus Nord/Nordost
Temperatur 12°C
Luftfeuchtigkeit 82%
Luftdruck 1021 hPa
Sichtweite 10 km oder mehr

METAR: LSZG 240450Z AUTO 03003KT 9999 NSC 12/09 Q1021

Zeit: 07:23 (05:23 UTC)

Prognose

Neuester Wetterbericht von vor 14 Stunden und 58 Minuten, um 14:25 UTC
Gültige Prognose vom 23 um 15 UTC bis 23 um 24 UTC
Wind 8 kt aus Nordost
Sichtweite 10 km oder mehr
keine Wolken unter 1500 m und keine Kumulonimbus oder Gewitterwolken
Wahrscheinlichkeit 40% :
Zeitweise
vom 23 um 15 UTC bis 23 um 20 UTC
Wind 15 kt aus Nord/Nordwest, Böen bis zu 28 kt

TAF: LSZG 231425Z 2315/2324 04008KT CAVOK PROB40 TEMPO 2315/2320 34015G28KT

Wetterbeobachtungen und Prognosen von mehr als 4000 Flughäfen (METAR und TAF Bericht).

Die verfügbaren Stationen werden durch gelbe und rote Markierungen auf der Karte dargestellt.

Führen Sie die Maus auf sie, um den Namen der Station zu sehen.

Darauf klicken, um die Beobachtung von Wetterbeobachtungen und Prognosen zu sehen.

Um die Karte zu ändern : klicken Sie auf den grünen Tasten mit einem schwarzen Kreuz Zum Vergrößern, auf den grünen Button mit einem Gedankenstrich zu verkleinern, oder auf die grünen Pfeile für benachbarte Karten.


METAR-TAF: